Oriana — ZCDU9 — position and weather

sailwx.info

Track history (hours):
 
Tides and Currents Weather Stations Pressure Air Temp Water Temp Dewpoint Dewpoint Depression Visibility Wind Speed Wind Dir Waves Ship Positions

Oriana (Bermuda)

Last reported at 2017-May-22 18:00 UTC. Time now 2017-May-23 08:59 UTC.
Position N 47°18' W 008°54'.

Length 261 m; beam 32.2 m; draft 8.2 m.

Type: Ship. MMSI: 310529000.

Wind from 220 at 11 knots

Barometer 1020.7 mb
Air temperature 14.7 ° C
Visibility: greater than 10.8 NM
Dewpoint 12.7 ° C
Water temperature 14.0 ° C

Date/timePositionNaut miles runAvg speedWind from/ knotsBaromVisibWave heightAir tempDewpointWater temp
2017-May-22 18:00N 47°18' W 008°54'1156.4 220 / 111020.710.8 14.712.714.0
2017-May-22 17:48N 47°28' W 008°48'7915.1
2017-May-22 12:33N 48°18' W 007°17'2814.3
2017-May-22 10:35N 48°37' W 006°45'514.9
2017-May-22 10:14N 48°39' W 006°38'615.1
2017-May-22 09:49N 48°44' W 006°31'615.1
2017-May-22 09:26N 48°47' W 006°24'915.4
2017-May-22 08:49N 48°53' W 006°13'515.8
2017-May-22 08:30N 48°56' W 006°07'1015.8
2017-May-22 07:53N 49°02' W 005°54'1718.6
2017-May-22 07:00N 49°06' W 005°30'519.1 210 / 121013.410.8 14.412.213.0
2017-May-22 06:43N 49°11' W 005°29'2316.4
2017-May-22 05:19N 49°24' W 005°00'715.7
2017-May-22 04:53N 49°28' W 004°51'1115.5
2017-May-22 04:11N 49°33' W 004°37'515.2
2017-May-22 03:53N 49°36' W 004°31'615.0
2017-May-22 03:30N 49°39' W 004°24'814.9
2017-May-22 03:00N 49°42' W 004°13'191.7
2017-May-22 03:00N 49°42' W 004°12'713.7 120 / 301013.810.8 14.412.213.0
2017-May-22 02:28N 49°46' W 004°03'714.7
2017-May-22 02:00N 49°49' W 003°54'714.8
2017-May-22 01:30N 49°53' W 003°44'815.1
2017-May-22 01:00N 49°57' W 003°34'815.5
2017-May-22 00:30N 50°01' W 003°23'816.0
2017-May-22 00:00N 50°04' W 003°12'816.5
2017-May-21 23:30N 50°07' W 002°60'817.0
2017-May-21 23:00N 50°09' W 002°47'917.3
2017-May-21 22:31N 50°13' W 002°35'917.7
2017-May-21 22:00N 50°16' W 002°22'917.9
2017-May-21 21:30N 50°18' W 002°08'917.7
2017-May-21 21:00N 50°20' W 001°55'917.4
2017-May-21 20:30N 50°23' W 001°42'816.9
2017-May-21 20:00N 50°26' W 001°29'816.4
2017-May-21 19:30N 50°28' W 001°17'815.8
2017-May-21 19:00N 50°31' W 001°05'7533.7
2017-May-21 19:00N 50°30' W 000°54'714.7 080 / 281019.810.8 14.710.513.0
2017-May-21 18:31N 50°36' W 000°59'612.1
2017-May-21 18:00N 50°42' W 000°59'612.6
2017-May-21 17:30N 50°45' W 001°07'715.0
2017-May-21 17:00N 50°47' W 001°19'4 8.0
2017-May-21 16:30N 50°51' W 001°21'4 8.3
2017-May-21 16:00N 50°54' W 001°26'0 0.2
2017-May-21 15:28N 50°54' W 001°26'0 0.0
2017-May-21 14:58N 50°54' W 001°26'0 0.0
2017-May-21 14:28N 50°54' W 001°26'0 0.0
2017-May-21 13:28N 50°54' W 001°26'0 0.0
2017-May-21 12:58N 50°54' W 001°26'0 0.0
2017-May-21 12:28N 50°54' W 001°26'0 0.0
2017-May-21 11:58N 50°54' W 001°26'0 0.0
2017-May-21 11:28N 50°54' W 001°26'0 0.0
2017-May-21 10:58N 50°54' W 001°26'0 0.0
2017-May-21 10:29N 50°54' W 001°26'0 0.0
2017-May-21 09:59N 50°54' W 001°26'0 0.0
2017-May-21 09:29N 50°54' W 001°26'0 0.0
2017-May-21 08:56N 50°54' W 001°26'0 0.0
2017-May-21 08:26N 50°54' W 001°26'0 0.0
2017-May-21 07:59N 50°54' W 001°26'0 0.0
2017-May-21 07:29N 50°54' W 001°26'0 0.0
2017-May-21 06:59N 50°54' W 001°26'0 0.0
2017-May-21 06:26N 50°54' W 001°26'0 0.0
2017-May-21 06:00N 50°54' W 001°26'0 0.6
2017-May-21 05:30N 50°54' W 001°26'3 6.0
2017-May-21 05:01N 50°52' W 001°23'5 9.8
2017-May-21 04:31N 50°49' W 001°17'510.3
2017-May-21 04:01N 50°46' W 001°11'816.4
2017-May-21 03:31N 50°43' W 000°59'510.4
2017-May-21 03:00N 50°38' W 000°59'612.1
2017-May-21 02:31N 50°32' W 001°02'713.9
2017-May-21 02:00N 50°30' W 001°13'2013.3
2017-May-21 00:32N 50°23' W 001°42'015.1
2017-May-21 00:30N 50°22' W 001°42'2014.2
2017-May-20 23:07N 50°12' W 002°09'515.4
2017-May-20 22:49N 50°08' W 002°10'1413.6
2017-May-20 21:48N 49°57' W 002°23'414.3
2017-May-20 21:30N 49°55' W 002°29'714.3
2017-May-20 21:00N 49°53' W 002°40'714.2
2017-May-20 20:31N 49°49' W 002°49'814.4
2017-May-20 19:58N 49°42' W 002°53'80 3.6
2017-May-19 22:03N 48°51' W 004°27'111.9
2017-May-19 21:59N 48°51' W 004°28'611.9
2017-May-19 21:30N 48°48' W 004°36'611.9
2017-May-19 20:58N 48°46' W 004°45'511.8
2017-May-19 20:30N 48°45' W 004°53'611.7
2017-May-19 20:00N 48°43' W 005°01'611.5
2017-May-19 19:30N 48°41' W 005°09'611.1
2017-May-19 18:59N 48°37' W 005°16'612.4
2017-May-19 18:30N 48°33' W 005°21'2011.3
2017-May-19 16:43N 48°13' W 005°27'8815.3
2017-May-19 11:00N 46°48' W 004°54'18614.3 270 / 251016.410.8 12.5 7.413.0
2017-May-18 22:00N 43°48' W 003°48'39 1.8 260 / 281020.210.8 13.8 7.515.0
2017-May-18 01:00N 44°12' W 003°06'11515.6 330 / 231017.710.8 14.213.116.0
2017-May-17 17:36N 45°55' W 001°55'215.0
2017-May-17 17:30N 45°57' W 001°54'815.0
2017-May-17 17:00N 46°04' W 001°48'713.8
2017-May-17 16:30N 46°08' W 001°41'715.0
2017-May-17 16:01N 46°07' W 001°31'714.7
2017-May-17 15:30N 46°06' W 001°20'4 8.5
2017-May-17 15:00N 46°09' W 001°15'1 1.0
2017-May-17 13:58N 46°10' W 001°14'0 0.0
2017-May-17 13:25N 46°10' W 001°14'0 0.0
2017-May-17 12:55N 46°10' W 001°14'0 0.0
2017-May-17 12:28N 46°10' W 001°14'0 0.0
2017-May-17 11:58N 46°10' W 001°14'0 0.0
2017-May-17 11:25N 46°10' W 001°14'0 0.0
2017-May-17 10:58N 46°10' W 001°14'0 0.0
2017-May-17 10:28N 46°10' W 001°14'0 0.0
2017-May-17 09:59N 46°10' W 001°14'0 0.0
2017-May-17 09:29N 46°10' W 001°14'0 0.0
2017-May-17 09:00N 46°10' W 001°14'0 0.0
2017-May-17 08:30N 46°10' W 001°14'0 0.0
2017-May-17 07:55N 46°10' W 001°14'0 0.0
2017-May-17 07:28N 46°10' W 001°14'0 0.0
2017-May-17 06:57N 46°10' W 001°14'0 0.0
2017-May-17 06:25N 46°10' W 001°14'0 0.0
2017-May-17 05:58N 46°10' W 001°14'0 0.0
2017-May-17 05:30N 46°10' W 001°15'0 0.5
2017-May-17 05:00N 46°09' W 001°15'4 8.3
2017-May-17 04:30N 46°06' W 001°17'713.4
2017-May-17 04:00N 46°06' W 001°27'815.9
2017-May-17 03:30N 46°07' W 001°38'714.2
2017-May-17 03:00N 46°11' W 001°47'714.6
2017-May-17 02:30N 46°15' W 001°56'714.6
2017-May-17 02:00N 46°20' W 002°04'713.9
2017-May-17 01:30N 46°24' W 002°12'714.4
2017-May-17 01:00N 46°28' W 002°21'7452.3
2017-May-17 01:00N 46°24' W 002°12'1530.5 350 / 151021.510.8 16.514.816.0
2017-May-17 00:30N 46°33' W 002°29'815.0
2017-May-17 00:00N 46°37' W 002°38'815.5
2017-May-16 23:31N 46°41' W 002°48'714.8
2017-May-16 23:00N 46°45' W 002°57'815.1
2017-May-16 22:30N 46°50' W 003°06'713.3
2017-May-16 22:01N 46°53' W 003°14'611.6
2017-May-16 21:31N 46°57' W 003°21'611.7
2017-May-16 21:01N 46°60' W 003°28'611.6
2017-May-16 20:31N 47°03' W 003°35'611.8
2017-May-16 20:00N 47°06' W 003°42'611.7
2017-May-16 19:30N 47°10' W 003°49'611.7
2017-May-16 19:00N 47°13' W 003°56'611.8
2017-May-16 18:31N 47°16' W 004°04'611.7
2017-May-16 18:01N 47°19' W 004°11'611.8
2017-May-16 17:31N 47°23' W 004°18'611.8
2017-May-16 17:01N 47°26' W 004°25'611.3
2017-May-16 16:31N 47°29' W 004°32'611.2
2017-May-16 16:00N 47°32' W 004°39'612.0
2017-May-16 15:30N 47°35' W 004°47'815.0
2017-May-16 15:00N 47°40' W 004°56'714.9
2017-May-16 14:30N 47°44' W 005°05'1414.5
2017-May-16 13:30N 47°53' W 005°21'714.0
2017-May-16 13:00N 48°00' W 005°22'612.1
2017-May-16 12:30N 48°06' W 005°23'612.4
2017-May-16 12:00N 48°13' W 005°24'143.6
2017-May-16 12:00N 48°12' W 005°24'713.9 190 / 181025.010.8 14.612.012.0
2017-May-16 11:30N 48°19' W 005°25'612.3
2017-May-16 11:00N 48°25' W 005°26'611.7
2017-May-16 10:30N 48°30' W 005°24'611.5
2017-May-16 10:00N 48°35' W 005°18'4357.7
2017-May-16 10:00N 48°36' W 005°12'3 6.6 180 / 201023.3 5.4 13.512.612.0
2017-May-16 09:30N 48°39' W 005°13'611.3
2017-May-16 09:00N 48°43' W 005°07'510.5
2017-May-16 08:30N 48°47' W 005°01'5 9.8
2017-May-16 08:00N 48°50' W 004°55'5 9.6
2017-May-16 07:30N 48°53' W 004°50'5 9.5
2017-May-16 07:00N 48°56' W 004°44'8 9.7
2017-May-16 06:08N 49°02' W 004°35'2 9.8
2017-May-16 05:59N 49°03' W 004°33'510.2
2017-May-16 05:29N 49°06' W 004°28'816.5
2017-May-16 04:59N 49°12' W 004°18'917.2
2017-May-16 04:27N 49°18' W 004°08'817.7
2017-May-16 04:00N 49°24' W 003°59'1218.2
2017-May-16 03:21N 49°31' W 003°45'1318.6
2017-May-16 02:41N 49°39' W 003°30'618.5
2017-May-16 02:21N 49°43' W 003°24'718.4
2017-May-16 02:00N 49°48' W 003°16'6823.6
2017-May-16 02:00N 49°42' W 003°18'1627.2 180 / 181020.510.8 14.011.213.0
2017-May-16 01:25N 49°54' W 003°03'717.8
2017-May-16 01:01N 49°58' W 002°53'917.7
2017-May-16 00:31N 50°01' W 002°40'2116.5
2017-May-15 23:15N 50°09' W 002°11'4916.1
2017-May-15 20:11N 50°30' W 001°01'316.6
2017-May-15 20:01N 50°32' W 000°58'816.6
2017-May-15 19:31N 50°40' W 000°58'611.5
2017-May-15 19:01N 50°44' W 001°05'917.4
2017-May-15 18:31N 50°47' W 001°18'4 8.7
2017-May-15 18:01N 50°51' W 001°20'5 9.0
2017-May-15 17:30N 50°54' W 001°25'1 1.3
2017-May-15 16:59N 50°54' W 001°26'0 0.0
2017-May-15 16:29N 50°54' W 001°26'0 0.0
2017-May-15 15:59N 50°54' W 001°26'0 0.0
2017-May-15 15:29N 50°54' W 001°26'0 0.0
2017-May-15 14:59N 50°54' W 001°26'0 0.0
2017-May-15 13:59N 50°54' W 001°26'0 0.0
2017-May-15 13:29N 50°54' W 001°26'0 0.0
2017-May-15 12:59N 50°54' W 001°26'0 0.0
2017-May-15 12:29N 50°54' W 001°26'0 0.0
2017-May-15 11:59N 50°54' W 001°26'0 0.0
2017-May-15 11:29N 50°54' W 001°26'0 0.0
2017-May-15 10:59N 50°54' W 001°26'0 0.0
2017-May-15 10:29N 50°54' W 001°26'0 0.0
2017-May-15 09:59N 50°54' W 001°26'0 0.0
2017-May-15 09:29N 50°54' W 001°26'0 0.0
2017-May-15 08:59N 50°54' W 001°26'0 0.0
2017-May-15 08:29N 50°54' W 001°26'0 0.0
2017-May-15 07:59N 50°54' W 001°26'0 0.0
2017-May-15 07:29N 50°54' W 001°26'0 0.0
2017-May-15 06:59N 50°54' W 001°26'0 0.0
2017-May-15 06:29N 50°54' W 001°26'0 0.0
2017-May-15 05:59N 50°54' W 001°26'0 0.0
2017-May-15 05:30N 50°54' W 001°26'2 4.2
2017-May-15 05:01N 50°53' W 001°24'4 8.4
2017-May-15 04:31N 50°50' W 001°19'4 8.1
2017-May-15 04:00N 50°46' W 001°16'919.0
2017-May-15 03:30N 50°43' W 001°01'612.7
2017-May-15 03:00N 50°39' W 000°54'611.4
2017-May-15 02:31N 50°37' W 000°46'815.8
2017-May-15 02:01N 50°34' W 000°34'918.0
2017-May-15 01:31N 50°33' W 000°20'917.3
2017-May-15 01:00N 50°33' W 000°06'918.7
2017-May-15 00:30N 50°34' E 000°08'918.1
2017-May-15 00:00N 50°36' E 000°22'918.0
2017-May-14 23:30N 50°38' E 000°36'918.1
2017-May-14 23:00N 50°44' E 000°47'918.0
2017-May-14 22:30N 50°49' E 000°59'918.1
2017-May-14 22:00N 50°55' E 001°10'1019.2
2017-May-14 21:30N 51°01' E 001°22'1020.2
2017-May-14 21:00N 51°07' E 001°34'1019.8
2017-May-14 20:30N 51°14' E 001°46'918.4
2017-May-14 20:00N 51°22' E 001°54'714.7
2017-May-14 19:30N 51°24' E 002°06'917.4
2017-May-14 19:00N 51°21' E 002°19'816.8
2017-May-14 18:30N 51°23' E 002°32'713.1
2017-May-14 18:01N 51°24' E 002°42'5 9.4
2017-May-14 17:31N 51°25' E 002°49'714.8
2017-May-14 17:00N 51°25' E 003°01'713.3
2017-May-14 16:31N 51°22' E 003°11'2 4.1
2017-May-14 15:58N 51°20' E 003°12'0 0.0
2017-May-14 15:28N 51°20' E 003°12'0 0.0
2017-May-14 14:57N 51°20' E 003°12'0 0.0
2017-May-14 14:29N 51°20' E 003°12'0 0.0
2017-May-14 13:26N 51°20' E 003°12'0 0.0
2017-May-14 12:59N 51°20' E 003°12'0 0.0
2017-May-14 12:26N 51°20' E 003°12'0 0.0
2017-May-14 11:56N 51°20' E 003°12'0 0.0
2017-May-14 11:30N 51°20' E 003°12'0 0.0
2017-May-14 10:59N 51°20' E 003°12'0 0.0
2017-May-14 10:29N 51°20' E 003°12'0 0.0
2017-May-14 09:59N 51°20' E 003°12'0 0.0
2017-May-14 09:29N 51°20' E 003°12'0 0.0
2017-May-14 08:59N 51°20' E 003°12'0 0.0
2017-May-14 08:29N 51°20' E 003°12'0 0.0
2017-May-14 07:53N 51°20' E 003°12'0 0.0
2017-May-14 07:29N 51°20' E 003°12'0 0.0
2017-May-14 06:59N 51°20' E 003°12'0 0.0
2017-May-14 06:23N 51°20' E 003°12'0 0.1
2017-May-14 06:00N 51°20' E 003°12'1 1.1
2017-May-14 05:30N 51°21' E 003°12'510.9
2017-May-14 05:00N 51°24' E 003°05'815.4
2017-May-14 04:31N 51°22' E 002°53'714.2
2017-May-14 04:00N 51°22' E 002°42'510.4
2017-May-14 03:30N 51°22' E 002°34'611.4
2017-May-14 03:00N 51°21' E 002°25'611.5
2017-May-14 02:30N 51°18' E 002°16'714.0
2017-May-14 02:00N 51°15' E 002°07'8541.1
2017-May-14 02:00N 51°12' E 001°54'2 3.9 150 / 151015.810.8 12.6 9.511.0
2017-May-14 01:30N 51°11' E 001°56'815.3
2017-May-14 01:01N 51°07' E 001°46'816.5
2017-May-14 00:31N 51°01' E 001°37'917.9
2017-May-14 00:00N 50°54' E 001°27'817.0
2017-May-13 23:30N 50°47' E 001°22'816.4
2017-May-13 23:00N 50°39' E 001°16'917.0
2017-May-13 22:29N 50°33' E 001°06'817.0
2017-May-13 22:01N 50°29' E 000°55'815.7
2017-May-13 21:30N 50°27' E 000°43'815.2
2017-May-13 21:00N 50°25' E 000°31'815.4
2017-May-13 20:30N 50°24' E 000°20'917.8
2017-May-13 20:01N 50°22' E 000°06'917.9
2017-May-13 19:30N 50°20' W 000°08'816.9
2017-May-13 19:00N 50°18' W 000°21'816.7
2017-May-13 18:30N 50°15' W 000°33'916.3
2017-May-13 17:59N 50°13' W 000°46'916.5
2017-May-13 17:25N 50°11' W 001°00'716.2
2017-May-13 17:00N 50°09' W 001°10'1715.2
2017-May-13 15:55N 50°04' W 001°35'511.1
2017-May-13 15:28N 50°03' W 001°42'4 8.7
2017-May-13 15:00N 50°02' W 001°48'4 8.3
2017-May-13 14:30N 50°01' W 001°55'9 8.5
2017-May-13 13:30N 49°59' W 002°08'5 9.5
2017-May-13 13:00N 49°58' W 002°15'7595.1
2017-May-13 13:00N 49°54' W 002°06'1122.2 190 / 131011.910.8 13.610.311.0
2017-May-13 12:29N 49°57' W 002°23'511.0
2017-May-13 12:01N 49°55' W 002°31'611.3
2017-May-13 11:31N 49°54' W 002°39'611.4
2017-May-13 11:00N 49°52' W 002°48'510.7
2017-May-13 10:30N 49°49' W 002°54'611.7
2017-May-13 10:00N 49°43' W 002°54'8569.2
2017-May-13 10:00N 49°36' W 002°48'3 5.9 200 / 161009.8 5.4 12.510.611.0
2017-May-13 09:30N 49°38' W 002°52'812.0
2017-May-13 08:52N 49°30' W 002°49'13 6.3
2017-May-13 06:53N 49°27' W 002°30'  
Track history (hours):
 
Tides and Currents Weather Stations Pressure Air Temp Water Temp Dewpoint Dewpoint Depression Visibility Wind Speed Wind Dir Waves Ship Positions

Oriana (Bermuda)

Last reported at 2017-May-22 18:00 UTC. Time now 2017-May-23 08:59 UTC.
Position N 47°18' W 008°54'.

Length 261 m; beam 32.2 m; draft 8.2 m.

Type: Ship. MMSI: 310529000.

Wind from 220 at 11 knots

Barometer 1020.7 mb
Air temperature 14.7 ° C
Visibility: greater than 10.8 NM
Dewpoint 12.7 ° C
Water temperature 14.0 ° C

Date/timePositionNaut miles runAvg speedWind from/ knotsBaromVisibWave heightAir tempDewpointWater temp
2017-May-22 18:00N 47°18' W 008°54'1156.4 220 / 111020.710.8 14.712.714.0
2017-May-22 17:48N 47°28' W 008°48'7915.1
2017-May-22 12:33N 48°18' W 007°17'2814.3
2017-May-22 10:35N 48°37' W 006°45'514.9
2017-May-22 10:14N 48°39' W 006°38'615.1
2017-May-22 09:49N 48°44' W 006°31'615.1
2017-May-22 09:26N 48°47' W 006°24'915.4
2017-May-22 08:49N 48°53' W 006°13'515.8
2017-May-22 08:30N 48°56' W 006°07'1015.8
2017-May-22 07:53N 49°02' W 005°54'1718.6
2017-May-22 07:00N 49°06' W 005°30'519.1 210 / 121013.410.8 14.412.213.0
2017-May-22 06:43N 49°11' W 005°29'2316.4
2017-May-22 05:19N 49°24' W 005°00'715.7
2017-May-22 04:53N 49°28' W 004°51'1115.5
2017-May-22 04:11N 49°33' W 004°37'515.2
2017-May-22 03:53N 49°36' W 004°31'615.0
2017-May-22 03:30N 49°39' W 004°24'814.9
2017-May-22 03:00N 49°42' W 004°13'191.7
2017-May-22 03:00N 49°42' W 004°12'713.7 120 / 301013.810.8 14.412.213.0
2017-May-22 02:28N 49°46' W 004°03'714.7
2017-May-22 02:00N 49°49' W 003°54'714.8
2017-May-22 01:30N 49°53' W 003°44'815.1
2017-May-22 01:00N 49°57' W 003°34'815.5
2017-May-22 00:30N 50°01' W 003°23'816.0
2017-May-22 00:00N 50°04' W 003°12'816.5
2017-May-21 23:30N 50°07' W 002°60'817.0
2017-May-21 23:00N 50°09' W 002°47'917.3
2017-May-21 22:31N 50°13' W 002°35'917.7
2017-May-21 22:00N 50°16' W 002°22'917.9
2017-May-21 21:30N 50°18' W 002°08'917.7
2017-May-21 21:00N 50°20' W 001°55'917.4
2017-May-21 20:30N 50°23' W 001°42'816.9
2017-May-21 20:00N 50°26' W 001°29'816.4
2017-May-21 19:30N 50°28' W 001°17'815.8
2017-May-21 19:00N 50°31' W 001°05'7533.7
2017-May-21 19:00N 50°30' W 000°54'714.7 080 / 281019.810.8 14.710.513.0
2017-May-21 18:31N 50°36' W 000°59'612.1
2017-May-21 18:00N 50°42' W 000°59'612.6
2017-May-21 17:30N 50°45' W 001°07'715.0
2017-May-21 17:00N 50°47' W 001°19'4 8.0
2017-May-21 16:30N 50°51' W 001°21'4 8.3
2017-May-21 16:00N 50°54' W 001°26'0 0.2
2017-May-21 15:28N 50°54' W 001°26'0 0.0
2017-May-21 14:58N 50°54' W 001°26'0 0.0
2017-May-21 14:28N 50°54' W 001°26'0 0.0
2017-May-21 13:28N 50°54' W 001°26'0 0.0
2017-May-21 12:58N 50°54' W 001°26'0 0.0
2017-May-21 12:28N 50°54' W 001°26'0 0.0
2017-May-21 11:58N 50°54' W 001°26'0 0.0
2017-May-21 11:28N 50°54' W 001°26'0 0.0
2017-May-21 10:58N 50°54' W 001°26'0 0.0
2017-May-21 10:29N 50°54' W 001°26'0 0.0
2017-May-21 09:59N 50°54' W 001°26'0 0.0
2017-May-21 09:29N 50°54' W 001°26'0 0.0
2017-May-21 08:56N 50°54' W 001°26'0 0.0
2017-May-21 08:26N 50°54' W 001°26'0 0.0
2017-May-21 07:59N 50°54' W 001°26'0 0.0
2017-May-21 07:29N 50°54' W 001°26'0 0.0
2017-May-21 06:59N 50°54' W 001°26'0 0.0
2017-May-21 06:26N 50°54' W 001°26'0 0.0
2017-May-21 06:00N 50°54' W 001°26'0 0.6
2017-May-21 05:30N 50°54' W 001°26'3 6.0
2017-May-21 05:01N 50°52' W 001°23'5 9.8
2017-May-21 04:31N 50°49' W 001°17'510.3
2017-May-21 04:01N 50°46' W 001°11'816.4
2017-May-21 03:31N 50°43' W 000°59'510.4
2017-May-21 03:00N 50°38' W 000°59'612.1
2017-May-21 02:31N 50°32' W 001°02'713.9
2017-May-21 02:00N 50°30' W 001°13'2013.3
2017-May-21 00:32N 50°23' W 001°42'015.1
2017-May-21 00:30N 50°22' W 001°42'2014.2
2017-May-20 23:07N 50°12' W 002°09'515.4
2017-May-20 22:49N 50°08' W 002°10'1413.6
2017-May-20 21:48N 49°57' W 002°23'414.3
2017-May-20 21:30N 49°55' W 002°29'714.3
2017-May-20 21:00N 49°53' W 002°40'714.2
2017-May-20 20:31N 49°49' W 002°49'814.4
2017-May-20 19:58N 49°42' W 002°53'80 3.6
2017-May-19 22:03N 48°51' W 004°27'111.9
2017-May-19 21:59N 48°51' W 004°28'611.9
2017-May-19 21:30N 48°48' W 004°36'611.9
2017-May-19 20:58N 48°46' W 004°45'511.8
2017-May-19 20:30N 48°45' W 004°53'611.7
2017-May-19 20:00N 48°43' W 005°01'611.5
2017-May-19 19:30N 48°41' W 005°09'611.1
2017-May-19 18:59N 48°37' W 005°16'612.4
2017-May-19 18:30N 48°33' W 005°21'2011.3
2017-May-19 16:43N 48°13' W 005°27'8815.3
2017-May-19 11:00N 46°48' W 004°54'18614.3 270 / 251016.410.8 12.5 7.413.0
2017-May-18 22:00N 43°48' W 003°48'39 1.8 260 / 281020.210.8 13.8 7.515.0
2017-May-18 01:00N 44°12' W 003°06'11515.6 330 / 231017.710.8 14.213.116.0
2017-May-17 17:36N 45°55' W 001°55'215.0
2017-May-17 17:30N 45°57' W 001°54'815.0
2017-May-17 17:00N 46°04' W 001°48'713.8
2017-May-17 16:30N 46°08' W 001°41'715.0
2017-May-17 16:01N 46°07' W 001°31'714.7
2017-May-17 15:30N 46°06' W 001°20'4 8.5
2017-May-17 15:00N 46°09' W 001°15'1 1.0
2017-May-17 13:58N 46°10' W 001°14'0 0.0
2017-May-17 13:25N 46°10' W 001°14'0 0.0
2017-May-17 12:55N 46°10' W 001°14'0 0.0
2017-May-17 12:28N 46°10' W 001°14'0 0.0
2017-May-17 11:58N 46°10' W 001°14'0 0.0
2017-May-17 11:25N 46°10' W 001°14'0 0.0
2017-May-17 10:58N 46°10' W 001°14'0 0.0
2017-May-17 10:28N 46°10' W 001°14'0 0.0
2017-May-17 09:59N 46°10' W 001°14'0 0.0
2017-May-17 09:29N 46°10' W 001°14'0 0.0
2017-May-17 09:00N 46°10' W 001°14'0 0.0
2017-May-17 08:30N 46°10' W 001°14'0 0.0
2017-May-17 07:55N 46°10' W 001°14'0 0.0
2017-May-17 07:28N 46°10' W 001°14'0 0.0
2017-May-17 06:57N 46°10' W 001°14'0 0.0
2017-May-17 06:25N 46°10' W 001°14'0 0.0
2017-May-17 05:58N 46°10' W 001°14'0 0.0
2017-May-17 05:30N 46°10' W 001°15'0 0.5
2017-May-17 05:00N 46°09' W 001°15'4 8.3
2017-May-17 04:30N 46°06' W 001°17'713.4
2017-May-17 04:00N 46°06' W 001°27'815.9
2017-May-17 03:30N 46°07' W 001°38'714.2
2017-May-17 03:00N 46°11' W 001°47'714.6
2017-May-17 02:30N 46°15' W 001°56'714.6
2017-May-17 02:00N 46°20' W 002°04'713.9
2017-May-17 01:30N 46°24' W 002°12'714.4
2017-May-17 01:00N 46°28' W 002°21'7452.3
2017-May-17 01:00N 46°24' W 002°12'1530.5 350 / 151021.510.8 16.514.816.0
2017-May-17 00:30N 46°33' W 002°29'815.0
2017-May-17 00:00N 46°37' W 002°38'815.5
2017-May-16 23:31N 46°41' W 002°48'714.8
2017-May-16 23:00N 46°45' W 002°57'815.1
2017-May-16 22:30N 46°50' W 003°06'713.3
2017-May-16 22:01N 46°53' W 003°14'611.6
2017-May-16 21:31N 46°57' W 003°21'611.7
2017-May-16 21:01N 46°60' W 003°28'611.6
2017-May-16 20:31N 47°03' W 003°35'611.8
2017-May-16 20:00N 47°06' W 003°42'611.7
2017-May-16 19:30N 47°10' W 003°49'611.7
2017-May-16 19:00N 47°13' W 003°56'611.8
2017-May-16 18:31N 47°16' W 004°04'611.7
2017-May-16 18:01N 47°19' W 004°11'611.8
2017-May-16 17:31N 47°23' W 004°18'611.8
2017-May-16 17:01N 47°26' W 004°25'611.3
2017-May-16 16:31N 47°29' W 004°32'611.2
2017-May-16 16:00N 47°32' W 004°39'612.0
2017-May-16 15:30N 47°35' W 004°47'815.0
2017-May-16 15:00N 47°40' W 004°56'714.9
2017-May-16 14:30N 47°44' W 005°05'1414.5
2017-May-16 13:30N 47°53' W 005°21'714.0
2017-May-16 13:00N 48°00' W 005°22'612.1
2017-May-16 12:30N 48°06' W 005°23'612.4
2017-May-16 12:00N 48°13' W 005°24'143.6
2017-May-16 12:00N 48°12' W 005°24'713.9 190 / 181025.010.8 14.612.012.0
2017-May-16 11:30N 48°19' W 005°25'612.3
2017-May-16 11:00N 48°25' W 005°26'611.7
2017-May-16 10:30N 48°30' W 005°24'611.5
2017-May-16 10:00N 48°35' W 005°18'4357.7
2017-May-16 10:00N 48°36' W 005°12'3 6.6 180 / 201023.3 5.4 13.512.612.0
2017-May-16 09:30N 48°39' W 005°13'611.3
2017-May-16 09:00N 48°43' W 005°07'510.5
2017-May-16 08:30N 48°47' W 005°01'5 9.8
2017-May-16 08:00N 48°50' W 004°55'5 9.6
2017-May-16 07:30N 48°53' W 004°50'5 9.5
2017-May-16 07:00N 48°56' W 004°44'8 9.7
2017-May-16 06:08N 49°02' W 004°35'2 9.8
2017-May-16 05:59N 49°03' W 004°33'510.2
2017-May-16 05:29N 49°06' W 004°28'816.5
2017-May-16 04:59N 49°12' W 004°18'917.2
2017-May-16 04:27N 49°18' W 004°08'817.7
2017-May-16 04:00N 49°24' W 003°59'1218.2
2017-May-16 03:21N 49°31' W 003°45'1318.6
2017-May-16 02:41N 49°39' W 003°30'618.5
2017-May-16 02:21N 49°43' W 003°24'718.4
2017-May-16 02:00N 49°48' W 003°16'6823.6
2017-May-16 02:00N 49°42' W 003°18'1627.2 180 / 181020.510.8 14.011.213.0
2017-May-16 01:25N 49°54' W 003°03'717.8
2017-May-16 01:01N 49°58' W 002°53'917.7
2017-May-16 00:31N 50°01' W 002°40'2116.5
2017-May-15 23:15N 50°09' W 002°11'4916.1
2017-May-15 20:11N 50°30' W 001°01'316.6
2017-May-15 20:01N 50°32' W 000°58'816.6
2017-May-15 19:31N 50°40' W 000°58'611.5
2017-May-15 19:01N 50°44' W 001°05'917.4
2017-May-15 18:31N 50°47' W 001°18'4 8.7
2017-May-15 18:01N 50°51' W 001°20'5 9.0
2017-May-15 17:30N 50°54' W 001°25'1 1.3
2017-May-15 16:59N 50°54' W 001°26'0 0.0
2017-May-15 16:29N 50°54' W 001°26'0 0.0
2017-May-15 15:59N 50°54' W 001°26'0 0.0
2017-May-15 15:29N 50°54' W 001°26'0 0.0
2017-May-15 14:59N 50°54' W 001°26'0 0.0
2017-May-15 13:59N 50°54' W 001°26'0 0.0
2017-May-15 13:29N 50°54' W 001°26'0 0.0
2017-May-15 12:59N 50°54' W 001°26'0 0.0
2017-May-15 12:29N 50°54' W 001°26'0 0.0
2017-May-15 11:59N 50°54' W 001°26'0 0.0
2017-May-15 11:29N 50°54' W 001°26'0 0.0
2017-May-15 10:59N 50°54' W 001°26'0 0.0
2017-May-15 10:29N 50°54' W 001°26'0 0.0
2017-May-15 09:59N 50°54' W 001°26'0 0.0
2017-May-15 09:29N 50°54' W 001°26'0 0.0
2017-May-15 08:59N 50°54' W 001°26'0 0.0
2017-May-15 08:29N 50°54' W 001°26'0 0.0
2017-May-15 07:59N 50°54' W 001°26'0 0.0
2017-May-15 07:29N 50°54' W 001°26'0 0.0
2017-May-15 06:59N 50°54' W 001°26'0 0.0
2017-May-15 06:29N 50°54' W 001°26'0 0.0
2017-May-15 05:59N 50°54' W 001°26'0 0.0
2017-May-15 05:30N 50°54' W 001°26'2 4.2
2017-May-15 05:01N 50°53' W 001°24'4 8.4
2017-May-15 04:31N 50°50' W 001°19'4 8.1
2017-May-15 04:00N 50°46' W 001°16'919.0
2017-May-15 03:30N 50°43' W 001°01'612.7
2017-May-15 03:00N 50°39' W 000°54'611.4
2017-May-15 02:31N 50°37' W 000°46'815.8
2017-May-15 02:01N 50°34' W 000°34'918.0
2017-May-15 01:31N 50°33' W 000°20'917.3
2017-May-15 01:00N 50°33' W 000°06'918.7
2017-May-15 00:30N 50°34' E 000°08'918.1
2017-May-15 00:00N 50°36' E 000°22'918.0
2017-May-14 23:30N 50°38' E 000°36'918.1
2017-May-14 23:00N 50°44' E 000°47'918.0
2017-May-14 22:30N 50°49' E 000°59'918.1
2017-May-14 22:00N 50°55' E 001°10'1019.2
2017-May-14 21:30N 51°01' E 001°22'1020.2
2017-May-14 21:00N 51°07' E 001°34'1019.8
2017-May-14 20:30N 51°14' E 001°46'918.4
2017-May-14 20:00N 51°22' E 001°54'714.7
2017-May-14 19:30N 51°24' E 002°06'917.4
2017-May-14 19:00N 51°21' E 002°19'816.8
2017-May-14 18:30N 51°23' E 002°32'713.1
2017-May-14 18:01N 51°24' E 002°42'5 9.4
2017-May-14 17:31N 51°25' E 002°49'714.8
2017-May-14 17:00N 51°25' E 003°01'713.3
2017-May-14 16:31N 51°22' E 003°11'2 4.1
2017-May-14 15:58N 51°20' E 003°12'0 0.0
2017-May-14 15:28N 51°20' E 003°12'0 0.0
2017-May-14 14:57N 51°20' E 003°12'0 0.0
2017-May-14 14:29N 51°20' E 003°12'0 0.0
2017-May-14 13:26N 51°20' E 003°12'0 0.0
2017-May-14 12:59N 51°20' E 003°12'0 0.0
2017-May-14 12:26N 51°20' E 003°12'0 0.0
2017-May-14 11:56N 51°20' E 003°12'0 0.0
2017-May-14 11:30N 51°20' E 003°12'0 0.0
2017-May-14 10:59N 51°20' E 003°12'0 0.0
2017-May-14 10:29N 51°20' E 003°12'0 0.0
2017-May-14 09:59N 51°20' E 003°12'0 0.0
2017-May-14 09:29N 51°20' E 003°12'0 0.0
2017-May-14 08:59N 51°20' E 003°12'0 0.0
2017-May-14 08:29N 51°20' E 003°12'0 0.0
2017-May-14 07:53N 51°20' E 003°12'0 0.0
2017-May-14 07:29N 51°20' E 003°12'0 0.0
2017-May-14 06:59N 51°20' E 003°12'0 0.0
2017-May-14 06:23N 51°20' E 003°12'0 0.1
2017-May-14 06:00N 51°20' E 003°12'1 1.1
2017-May-14 05:30N 51°21' E 003°12'510.9
2017-May-14 05:00N 51°24' E 003°05'815.4
2017-May-14 04:31N 51°22' E 002°53'714.2
2017-May-14 04:00N 51°22' E 002°42'510.4
2017-May-14 03:30N 51°22' E 002°34'611.4
2017-May-14 03:00N 51°21' E 002°25'611.5
2017-May-14 02:30N 51°18' E 002°16'714.0
2017-May-14 02:00N 51°15' E 002°07'8541.1
2017-May-14 02:00N 51°12' E 001°54'2 3.9 150 / 151015.810.8 12.6 9.511.0
2017-May-14 01:30N 51°11' E 001°56'815.3
2017-May-14 01:01N 51°07' E 001°46'816.5
2017-May-14 00:31N 51°01' E 001°37'917.9
2017-May-14 00:00N 50°54' E 001°27'817.0
2017-May-13 23:30N 50°47' E 001°22'816.4
2017-May-13 23:00N 50°39' E 001°16'917.0
2017-May-13 22:29N 50°33' E 001°06'817.0
2017-May-13 22:01N 50°29' E 000°55'815.7
2017-May-13 21:30N 50°27' E 000°43'815.2
2017-May-13 21:00N 50°25' E 000°31'815.4
2017-May-13 20:30N 50°24' E 000°20'917.8
2017-May-13 20:01N 50°22' E 000°06'917.9
2017-May-13 19:30N 50°20' W 000°08'816.9
2017-May-13 19:00N 50°18' W 000°21'816.7
2017-May-13 18:30N 50°15' W 000°33'916.3
2017-May-13 17:59N 50°13' W 000°46'916.5
2017-May-13 17:25N 50°11' W 001°00'716.2
2017-May-13 17:00N 50°09' W 001°10'1715.2
2017-May-13 15:55N 50°04' W 001°35'511.1
2017-May-13 15:28N 50°03' W 001°42'4 8.7
2017-May-13 15:00N 50°02' W 001°48'4 8.3
2017-May-13 14:30N 50°01' W 001°55'9 8.5
2017-May-13 13:30N 49°59' W 002°08'5 9.5
2017-May-13 13:00N 49°58' W 002°15'7595.1
2017-May-13 13:00N 49°54' W 002°06'1122.2 190 / 131011.910.8 13.610.311.0
2017-May-13 12:29N 49°57' W 002°23'511.0
2017-May-13 12:01N 49°55' W 002°31'611.3
2017-May-13 11:31N 49°54' W 002°39'611.4
2017-May-13 11:00N 49°52' W 002°48'510.7
2017-May-13 10:30N 49°49' W 002°54'611.7
2017-May-13 10:00N 49°43' W 002°54'8569.2
2017-May-13 10:00N 49°36' W 002°48'3 5.9 200 / 161009.8 5.4 12.510.611.0
2017-May-13 09:30N 49°38' W 002°52'812.0
2017-May-13 08:52N 49°30' W 002°49'13 6.3
2017-May-13 06:53N 49°27' W 002°30'  

Dump ship's entire track history